sensor_id;sensor_type;location;lat;lon;timestamp;temperature;humidity
31783;DHT22;18351;47.560;9.708;2023-08-31T00:01:46;15.40;99.90
31783;DHT22;18351;47.560;9.708;2023-08-31T00:04:13;15.40;99.90
31783;DHT22;18351;47.560;9.708;2023-08-31T00:06:40;15.40;99.90
31783;DHT22;18351;47.560;9.708;2023-08-31T00:09:06;15.40;99.90
31783;DHT22;18351;47.560;9.708;2023-08-31T00:11:35;15.40;99.90
31783;DHT22;18351;47.560;9.708;2023-08-31T00:14:01;15.40;99.90
31783;DHT22;18351;47.560;9.708;2023-08-31T00:16:27;15.30;99.90
31783;DHT22;18351;47.560;9.708;2023-08-31T00:18:53;15.40;99.90
31783;DHT22;18351;47.560;9.708;2023-08-31T00:21:20;15.30;99.90
31783;DHT22;18351;47.560;9.708;2023-08-31T00:23:46;15.30;99.90
31783;DHT22;18351;47.560;9.708;2023-08-31T00:26:12;15.30;99.90
31783;DHT22;18351;47.560;9.708;2023-08-31T00:28:38;15.30;99.90
31783;DHT22;18351;47.560;9.708;2023-08-31T00:31:04;15.30;99.90
31783;DHT22;18351;47.560;9.708;2023-08-31T00:33:29;15.30;99.90
31783;DHT22;18351;47.560;9.708;2023-08-31T00:35:58;15.30;99.90
31783;DHT22;18351;47.560;9.708;2023-08-31T00:38:27;15.40;99.90
31783;DHT22;18351;47.560;9.708;2023-08-31T00:40:52;15.40;99.90
31783;DHT22;18351;47.560;9.708;2023-08-31T00:43:19;15.40;99.90
31783;DHT22;18351;47.560;9.708;2023-08-31T00:45:48;15.50;99.90
31783;DHT22;18351;47.560;9.708;2023-08-31T00:48:15;15.40;99.90
31783;DHT22;18351;47.560;9.708;2023-08-31T00:50:45;15.40;99.90
31783;DHT22;18351;47.560;9.708;2023-08-31T00:53:11;15.40;99.90
31783;DHT22;18351;47.560;9.708;2023-08-31T00:55:37;15.40;99.90
31783;DHT22;18351;47.560;9.708;2023-08-31T00:58:05;15.40;99.90
31783;DHT22;18351;47.560;9.708;2023-08-31T01:06:24;15.30;99.90
31783;DHT22;18351;47.560;9.708;2023-08-31T01:09:19;15.30;99.90
31783;DHT22;18351;47.560;9.708;2023-08-31T01:11:52;15.30;99.90
31783;DHT22;18351;47.560;9.708;2023-08-31T01:14:23;15.30;99.90
31783;DHT22;18351;47.560;9.708;2023-08-31T01:16:50;15.30;99.90
31783;DHT22;18351;47.560;9.708;2023-08-31T01:19:39;15.30;99.90
31783;DHT22;18351;47.560;9.708;2023-08-31T01:22:11;15.30;99.90
31783;DHT22;18351;47.560;9.708;2023-08-31T01:24:37;15.30;99.90
31783;DHT22;18351;47.560;9.708;2023-08-31T01:27:03;15.30;99.90
31783;DHT22;18351;47.560;9.708;2023-08-31T01:29:30;15.30;99.90
31783;DHT22;18351;47.560;9.708;2023-08-31T01:31:56;15.30;99.90
31783;DHT22;18351;47.560;9.708;2023-08-31T01:34:21;15.40;99.90
31783;DHT22;18351;47.560;9.708;2023-08-31T01:36:52;15.30;99.90
31783;DHT22;18351;47.560;9.708;2023-08-31T01:39:26;15.30;99.90
31783;DHT22;18351;47.560;9.708;2023-08-31T01:42:01;15.30;99.90
31783;DHT22;18351;47.560;9.708;2023-08-31T01:44:28;15.30;99.90
31783;DHT22;18351;47.560;9.708;2023-08-31T01:47:05;15.20;99.90
31783;DHT22;18351;47.560;9.708;2023-08-31T01:49:38;15.30;99.90
31783;DHT22;18351;47.560;9.708;2023-08-31T01:52:05;15.30;99.90
31783;DHT22;18351;47.560;9.708;2023-08-31T01:54:31;15.30;99.90
31783;DHT22;18351;47.560;9.708;2023-08-31T01:56:56;15.30;99.90
31783;DHT22;18351;47.560;9.708;2023-08-31T01:59:22;15.30;99.90
31783;DHT22;18351;47.560;9.708;2023-08-31T02:01:47;15.40;99.90
31783;DHT22;18351;47.560;9.708;2023-08-31T02:04:13;15.40;99.90
31783;DHT22;18351;47.560;9.708;2023-08-31T02:06:38;15.40;99.90
31783;DHT22;18351;47.560;9.708;2023-08-31T02:09:04;15.40;99.90
31783;DHT22;18351;47.560;9.708;2023-08-31T02:11:31;15.40;99.90
31783;DHT22;18351;47.560;9.708;2023-08-31T02:13:57;15.40;99.90
31783;DHT22;18351;47.560;9.708;2023-08-31T02:16:23;15.40;99.90
31783;DHT22;18351;47.560;9.708;2023-08-31T02:18:49;15.40;99.90
31783;DHT22;18351;47.560;9.708;2023-08-31T02:21:15;15.40;99.90
31783;DHT22;18351;47.560;9.708;2023-08-31T02:23:40;15.40;99.90
31783;DHT22;18351;47.560;9.708;2023-08-31T02:26:06;15.40;99.90
31783;DHT22;18351;47.560;9.708;2023-08-31T02:28:31;15.40;99.90
31783;DHT22;18351;47.560;9.708;2023-08-31T02:30:58;15.40;99.90
31783;DHT22;18351;47.560;9.708;2023-08-31T02:33:25;15.40;99.90
31783;DHT22;18351;47.560;9.708;2023-08-31T02:35:50;15.40;99.90
31783;DHT22;18351;47.560;9.708;2023-08-31T02:38:16;15.40;99.90
31783;DHT22;18351;47.560;9.708;2023-08-31T02:40:41;15.40;99.90
31783;DHT22;18351;47.560;9.708;2023-08-31T02:43:07;15.50;99.90
31783;DHT22;18351;47.560;9.708;2023-08-31T02:45:32;15.40;99.90
31783;DHT22;18351;47.560;9.708;2023-08-31T02:47:58;15.40;99.90
31783;DHT22;18351;47.560;9.708;2023-08-31T02:50:24;15.40;99.90
31783;DHT22;18351;47.560;9.708;2023-08-31T02:52:50;15.30;99.90
31783;DHT22;18351;47.560;9.708;2023-08-31T02:55:15;15.30;99.90
31783;DHT22;18351;47.560;9.708;2023-08-31T02:57:41;15.30;99.90
31783;DHT22;18351;47.560;9.708;2023-08-31T03:00:07;15.20;99.90
31783;DHT22;18351;47.560;9.708;2023-08-31T03:02:38;15.20;99.90
31783;DHT22;18351;47.560;9.708;2023-08-31T03:05:04;15.20;99.90
31783;DHT22;18351;47.560;9.708;2023-08-31T03:07:30;15.20;99.90
31783;DHT22;18351;47.560;9.708;2023-08-31T03:09:55;15.10;99.90
31783;DHT22;18351;47.560;9.708;2023-08-31T03:12:21;15.10;99.90
31783;DHT22;18351;47.560;9.708;2023-08-31T03:14:47;15.10;99.90
31783;DHT22;18351;47.560;9.708;2023-08-31T03:17:13;15.10;99.90
31783;DHT22;18351;47.560;9.708;2023-08-31T03:19:38;15.10;99.90
31783;DHT22;18351;47.560;9.708;2023-08-31T03:22:04;15.10;99.90
31783;DHT22;18351;47.560;9.708;2023-08-31T03:24:31;15.20;99.90
31783;DHT22;18351;47.560;9.708;2023-08-31T03:26:56;15.30;99.90
31783;DHT22;18351;47.560;9.708;2023-08-31T03:29:22;15.30;99.90
31783;DHT22;18351;47.560;9.708;2023-08-31T03:31:47;15.20;99.90
31783;DHT22;18351;47.560;9.708;2023-08-31T03:34:13;15.20;99.90
31783;DHT22;18351;47.560;9.708;2023-08-31T03:36:38;15.10;99.90
31783;DHT22;18351;47.560;9.708;2023-08-31T03:39:04;15.10;99.90
31783;DHT22;18351;47.560;9.708;2023-08-31T03:41:30;15.10;99.90
31783;DHT22;18351;47.560;9.708;2023-08-31T03:43:55;15.10;99.90
31783;DHT22;18351;47.560;9.708;2023-08-31T03:46:21;15.10;99.90
31783;DHT22;18351;47.560;9.708;2023-08-31T03:48:47;15.00;99.90
31783;DHT22;18351;47.560;9.708;2023-08-31T03:51:12;15.00;99.90
31783;DHT22;18351;47.560;9.708;2023-08-31T03:53:38;15.00;99.90
31783;DHT22;18351;47.560;9.708;2023-08-31T03:56:03;15.00;99.90
31783;DHT22;18351;47.560;9.708;2023-08-31T03:58:30;15.00;99.90
31783;DHT22;18351;47.560;9.708;2023-08-31T04:00:56;14.90;99.90
31783;DHT22;18351;47.560;9.708;2023-08-31T04:03:21;14.90;99.90
31783;DHT22;18351;47.560;9.708;2023-08-31T04:05:47;14.90;99.90
31783;DHT22;18351;47.560;9.708;2023-08-31T04:08:13;14.90;99.90
31783;DHT22;18351;47.560;9.708;2023-08-31T04:10:38;14.80;99.90
31783;DHT22;18351;47.560;9.708;2023-08-31T04:13:04;14.80;99.90
31783;DHT22;18351;47.560;9.708;2023-08-31T04:15:30;14.80;99.90
31783;DHT22;18351;47.560;9.708;2023-08-31T04:17:56;14.80;99.90
31783;DHT22;18351;47.560;9.708;2023-08-31T04:20:22;14.80;99.90
31783;DHT22;18351;47.560;9.708;2023-08-31T04:22:48;14.80;99.90
31783;DHT22;18351;47.560;9.708;2023-08-31T04:25:13;14.70;99.90
31783;DHT22;18351;47.560;9.708;2023-08-31T04:27:39;14.80;99.90
31783;DHT22;18351;47.560;9.708;2023-08-31T04:30:06;14.80;99.90
31783;DHT22;18351;47.560;9.708;2023-08-31T04:32:32;14.80;99.90
31783;DHT22;18351;47.560;9.708;2023-08-31T04:34:58;14.80;99.90
31783;DHT22;18351;47.560;9.708;2023-08-31T04:37:23;14.80;99.90
31783;DHT22;18351;47.560;9.708;2023-08-31T04:39:49;14.80;99.90
31783;DHT22;18351;47.560;9.708;2023-08-31T04:42:14;14.80;99.90
31783;DHT22;18351;47.560;9.708;2023-08-31T04:44:42;14.70;99.90
31783;DHT22;18351;47.560;9.708;2023-08-31T04:47:08;14.70;99.90
31783;DHT22;18351;47.560;9.708;2023-08-31T04:49:33;14.60;99.90
31783;DHT22;18351;47.560;9.708;2023-08-31T04:51:59;14.70;99.90
31783;DHT22;18351;47.560;9.708;2023-08-31T04:54:24;14.70;99.90
31783;DHT22;18351;47.560;9.708;2023-08-31T04:56:50;14.70;99.90
31783;DHT22;18351;47.560;9.708;2023-08-31T04:59:16;14.80;99.90
31783;DHT22;18351;47.560;9.708;2023-08-31T05:01:42;14.80;99.90
31783;DHT22;18351;47.560;9.708;2023-08-31T05:04:07;14.80;99.90
31783;DHT22;18351;47.560;9.708;2023-08-31T05:06:33;14.70;99.90
31783;DHT22;18351;47.560;9.708;2023-08-31T05:08:58;14.80;99.90
31783;DHT22;18351;47.560;9.708;2023-08-31T05:11:24;14.70;99.90
31783;DHT22;18351;47.560;9.708;2023-08-31T05:13:49;14.80;99.90
31783;DHT22;18351;47.560;9.708;2023-08-31T05:16:15;14.80;99.90
31783;DHT22;18351;47.560;9.708;2023-08-31T05:18:40;14.80;99.90
31783;DHT22;18351;47.560;9.708;2023-08-31T05:21:06;14.80;99.90
31783;DHT22;18351;47.560;9.708;2023-08-31T05:23:32;14.70;99.90
31783;DHT22;18351;47.560;9.708;2023-08-31T05:25:58;14.80;99.90
31783;DHT22;18351;47.560;9.708;2023-08-31T05:28:24;14.80;99.90
31783;DHT22;18351;47.560;9.708;2023-08-31T05:30:51;14.70;99.90
31783;DHT22;18351;47.560;9.708;2023-08-31T05:33:17;14.70;99.90
31783;DHT22;18351;47.560;9.708;2023-08-31T05:35:43;14.70;99.90
31783;DHT22;18351;47.560;9.708;2023-08-31T05:38:09;14.60;99.90
31783;DHT22;18351;47.560;9.708;2023-08-31T05:40:34;14.60;99.90
31783;DHT22;18351;47.560;9.708;2023-08-31T05:43:00;14.60;99.90
31783;DHT22;18351;47.560;9.708;2023-08-31T05:45:25;14.60;99.90
31783;DHT22;18351;47.560;9.708;2023-08-31T05:47:51;14.60;99.90
31783;DHT22;18351;47.560;9.708;2023-08-31T05:50:17;14.60;99.90
31783;DHT22;18351;47.560;9.708;2023-08-31T05:52:42;14.70;99.90
31783;DHT22;18351;47.560;9.708;2023-08-31T05:55:10;14.60;99.90
31783;DHT22;18351;47.560;9.708;2023-08-31T05:57:35;14.60;99.90
31783;DHT22;18351;47.560;9.708;2023-08-31T06:00:01;14.50;99.90
31783;DHT22;18351;47.560;9.708;2023-08-31T06:02:26;14.60;99.90
31783;DHT22;18351;47.560;9.708;2023-08-31T06:04:53;14.60;99.90
31783;DHT22;18351;47.560;9.708;2023-08-31T06:07:18;14.80;99.90
31783;DHT22;18351;47.560;9.708;2023-08-31T06:09:44;14.80;99.90
31783;DHT22;18351;47.560;9.708;2023-08-31T06:12:09;14.90;99.90
31783;DHT22;18351;47.560;9.708;2023-08-31T06:14:35;14.90;99.90
31783;DHT22;18351;47.560;9.708;2023-08-31T06:17:00;15.00;99.90
31783;DHT22;18351;47.560;9.708;2023-08-31T06:19:26;15.00;99.90
31783;DHT22;18351;47.560;9.708;2023-08-31T06:21:51;15.00;99.90
31783;DHT22;18351;47.560;9.708;2023-08-31T06:24:17;15.10;99.90
31783;DHT22;18351;47.560;9.708;2023-08-31T06:26:42;15.10;99.90
31783;DHT22;18351;47.560;9.708;2023-08-31T06:29:08;15.20;99.90
31783;DHT22;18351;47.560;9.708;2023-08-31T06:31:36;15.10;99.90
31783;DHT22;18351;47.560;9.708;2023-08-31T06:34:01;15.20;99.90
31783;DHT22;18351;47.560;9.708;2023-08-31T06:36:27;15.20;99.90
31783;DHT22;18351;47.560;9.708;2023-08-31T06:38:53;15.10;99.90
31783;DHT22;18351;47.560;9.708;2023-08-31T06:41:18;15.10;99.90
31783;DHT22;18351;47.560;9.708;2023-08-31T06:43:44;15.10;99.90
31783;DHT22;18351;47.560;9.708;2023-08-31T06:46:11;15.10;99.90
31783;DHT22;18351;47.560;9.708;2023-08-31T06:48:36;15.00;99.90
31783;DHT22;18351;47.560;9.708;2023-08-31T06:51:02;14.90;99.90
31783;DHT22;18351;47.560;9.708;2023-08-31T06:53:29;14.90;99.90
31783;DHT22;18351;47.560;9.708;2023-08-31T06:55:59;14.90;99.90
31783;DHT22;18351;47.560;9.708;2023-08-31T06:58:25;15.00;99.90
31783;DHT22;18351;47.560;9.708;2023-08-31T07:00:50;15.00;99.90
31783;DHT22;18351;47.560;9.708;2023-08-31T07:03:16;15.00;99.90
31783;DHT22;18351;47.560;9.708;2023-08-31T07:05:42;15.00;99.90
31783;DHT22;18351;47.560;9.708;2023-08-31T07:08:09;15.10;99.90
31783;DHT22;18351;47.560;9.708;2023-08-31T07:10:34;15.10;99.90
31783;DHT22;18351;47.560;9.708;2023-08-31T07:13:03;15.10;99.90
31783;DHT22;18351;47.560;9.708;2023-08-31T07:15:29;15.20;99.90
31783;DHT22;18351;47.560;9.708;2023-08-31T07:17:55;15.30;99.90
31783;DHT22;18351;47.560;9.708;2023-08-31T07:20:20;15.30;99.90
31783;DHT22;18351;47.560;9.708;2023-08-31T07:22:46;15.40;99.90
31783;DHT22;18351;47.560;9.708;2023-08-31T07:25:12;15.50;99.90
31783;DHT22;18351;47.560;9.708;2023-08-31T07:27:37;15.60;99.90
31783;DHT22;18351;47.560;9.708;2023-08-31T07:30:04;15.60;99.90
31783;DHT22;18351;47.560;9.708;2023-08-31T07:32:31;15.70;99.90
31783;DHT22;18351;47.560;9.708;2023-08-31T07:34:56;15.80;99.90
31783;DHT22;18351;47.560;9.708;2023-08-31T07:37:22;15.90;99.90
31783;DHT22;18351;47.560;9.708;2023-08-31T07:39:48;16.10;99.90
31783;DHT22;18351;47.560;9.708;2023-08-31T07:42:13;16.30;99.90
31783;DHT22;18351;47.560;9.708;2023-08-31T07:44:39;16.50;99.90
31783;DHT22;18351;47.560;9.708;2023-08-31T07:47:06;16.60;99.90
31783;DHT22;18351;47.560;9.708;2023-08-31T07:49:32;16.60;99.90
31783;DHT22;18351;47.560;9.708;2023-08-31T07:51:58;16.80;99.90
31783;DHT22;18351;47.560;9.708;2023-08-31T07:54:23;17.00;99.90
31783;DHT22;18351;47.560;9.708;2023-08-31T07:56:49;16.90;99.90
31783;DHT22;18351;47.560;9.708;2023-08-31T07:59:16;17.00;99.90
31783;DHT22;18351;47.560;9.708;2023-08-31T08:01:42;17.10;99.90
31783;DHT22;18351;47.560;9.708;2023-08-31T08:04:08;17.20;99.90
31783;DHT22;18351;47.560;9.708;2023-08-31T08:06:33;17.30;99.90
31783;DHT22;18351;47.560;9.708;2023-08-31T08:08:59;17.50;99.90
31783;DHT22;18351;47.560;9.708;2023-08-31T08:11:24;17.60;99.90
31783;DHT22;18351;47.560;9.708;2023-08-31T08:13:50;17.70;99.90
31783;DHT22;18351;47.560;9.708;2023-08-31T08:16:15;17.70;99.90
31783;DHT22;18351;47.560;9.708;2023-08-31T08:18:41;17.70;99.90
31783;DHT22;18351;47.560;9.708;2023-08-31T08:21:07;17.60;99.90
31783;DHT22;18351;47.560;9.708;2023-08-31T08:23:32;17.70;99.90
31783;DHT22;18351;47.560;9.708;2023-08-31T08:25:58;17.80;99.90
31783;DHT22;18351;47.560;9.708;2023-08-31T08:28:26;17.70;99.90
31783;DHT22;18351;47.560;9.708;2023-08-31T08:30:53;17.60;99.90
31783;DHT22;18351;47.560;9.708;2023-08-31T08:33:19;17.50;99.90
31783;DHT22;18351;47.560;9.708;2023-08-31T08:35:44;17.40;99.90
31783;DHT22;18351;47.560;9.708;2023-08-31T08:38:10;17.30;99.90
31783;DHT22;18351;47.560;9.708;2023-08-31T08:40:36;17.30;99.90
31783;DHT22;18351;47.560;9.708;2023-08-31T08:43:02;17.30;99.90
31783;DHT22;18351;47.560;9.708;2023-08-31T08:45:35;17.40;99.90
31783;DHT22;18351;47.560;9.708;2023-08-31T08:48:08;17.50;99.90
31783;DHT22;18351;47.560;9.708;2023-08-31T08:50:35;17.70;99.90
31783;DHT22;18351;47.560;9.708;2023-08-31T08:53:02;17.90;99.90
31783;DHT22;18351;47.560;9.708;2023-08-31T08:55:28;18.00;99.90
31783;DHT22;18351;47.560;9.708;2023-08-31T08:57:55;18.20;99.90
31783;DHT22;18351;47.560;9.708;2023-08-31T09:00:21;18.40;99.90
31783;DHT22;18351;47.560;9.708;2023-08-31T09:02:46;18.50;99.90
31783;DHT22;18351;47.560;9.708;2023-08-31T09:05:12;18.70;99.90
31783;DHT22;18351;47.560;9.708;2023-08-31T09:07:38;18.90;99.90
31783;DHT22;18351;47.560;9.708;2023-08-31T09:10:25;19.00;99.90
31783;DHT22;18351;47.560;9.708;2023-08-31T09:12:59;18.90;99.90
31783;DHT22;18351;47.560;9.708;2023-08-31T09:15:24;18.80;99.90
31783;DHT22;18351;47.560;9.708;2023-08-31T09:17:51;18.80;99.90
31783;DHT22;18351;47.560;9.708;2023-08-31T09:20:16;18.80;99.90
31783;DHT22;18351;47.560;9.708;2023-08-31T09:22:43;18.80;99.90
31783;DHT22;18351;47.560;9.708;2023-08-31T09:25:12;18.90;99.90
31783;DHT22;18351;47.560;9.708;2023-08-31T09:27:38;18.90;99.90
31783;DHT22;18351;47.560;9.708;2023-08-31T09:30:05;19.00;99.90
31783;DHT22;18351;47.560;9.708;2023-08-31T09:32:31;19.00;99.90
31783;DHT22;18351;47.560;9.708;2023-08-31T09:34:58;18.90;99.90
31783;DHT22;18351;47.560;9.708;2023-08-31T09:37:28;19.00;99.90
31783;DHT22;18351;47.560;9.708;2023-08-31T09:39:53;19.10;99.90
31783;DHT22;18351;47.560;9.708;2023-08-31T09:42:20;19.20;99.90
31783;DHT22;18351;47.560;9.708;2023-08-31T09:44:49;19.20;99.90
31783;DHT22;18351;47.560;9.708;2023-08-31T09:47:15;19.30;99.90
31783;DHT22;18351;47.560;9.708;2023-08-31T09:49:42;19.20;99.90
31783;DHT22;18351;47.560;9.708;2023-08-31T09:52:09;19.20;99.90
31783;DHT22;18351;47.560;9.708;2023-08-31T09:54:35;19.30;99.90
31783;DHT22;18351;47.560;9.708;2023-08-31T09:57:02;19.20;99.90
31783;DHT22;18351;47.560;9.708;2023-08-31T09:59:28;19.30;99.90
31783;DHT22;18351;47.560;9.708;2023-08-31T10:01:53;19.20;99.90
31783;DHT22;18351;47.560;9.708;2023-08-31T10:04:22;19.30;99.90
31783;DHT22;18351;47.560;9.708;2023-08-31T10:06:49;19.40;99.90
31783;DHT22;18351;47.560;9.708;2023-08-31T10:09:15;19.60;99.90
31783;DHT22;18351;47.560;9.708;2023-08-31T10:11:41;19.80;99.90
31783;DHT22;18351;47.560;9.708;2023-08-31T10:14:11;19.80;99.90
31783;DHT22;18351;47.560;9.708;2023-08-31T10:16:39;19.70;99.90
31783;DHT22;18351;47.560;9.708;2023-08-31T10:19:05;19.80;99.90
31783;DHT22;18351;47.560;9.708;2023-08-31T10:21:30;19.70;99.90
31783;DHT22;18351;47.560;9.708;2023-08-31T10:23:57;19.60;99.90
31783;DHT22;18351;47.560;9.708;2023-08-31T10:26:27;19.50;99.90
31783;DHT22;18351;47.560;9.708;2023-08-31T10:28:53;19.50;99.90
31783;DHT22;18351;47.560;9.708;2023-08-31T10:31:20;19.50;99.90
31783;DHT22;18351;47.560;9.708;2023-08-31T10:33:59;19.50;99.90
31783;DHT22;18351;47.560;9.708;2023-08-31T10:36:37;19.60;99.90
31783;DHT22;18351;47.560;9.708;2023-08-31T10:41:35;19.70;99.90
31783;DHT22;18351;47.560;9.708;2023-08-31T10:44:01;19.80;99.90
31783;DHT22;18351;47.560;9.708;2023-08-31T10:46:39;19.80;99.90
31783;DHT22;18351;47.560;9.708;2023-08-31T10:51:41;19.60;99.90
31783;DHT22;18351;47.560;9.708;2023-08-31T10:59:51;19.90;99.90
31783;DHT22;18351;47.560;9.708;2023-08-31T11:02:42;20.20;99.50
31783;DHT22;18351;47.560;9.708;2023-08-31T11:07:47;20.20;99.20
31783;DHT22;18351;47.560;9.708;2023-08-31T11:10:24;20.20;99.90
31783;DHT22;18351;47.560;9.708;2023-08-31T11:12:54;20.00;97.90
31783;DHT22;18351;47.560;9.708;2023-08-31T11:15:21;19.90;99.90
31783;DHT22;18351;47.560;9.708;2023-08-31T11:17:52;20.00;97.30
31783;DHT22;18351;47.560;9.708;2023-08-31T11:20:19;20.20;98.60
31783;DHT22;18351;47.560;9.708;2023-08-31T11:22:48;20.50;97.10
31783;DHT22;18351;47.560;9.708;2023-08-31T11:25:18;20.50;95.30
31783;DHT22;18351;47.560;9.708;2023-08-31T11:28:22;20.60;97.10
31783;DHT22;18351;47.560;9.708;2023-08-31T11:30:48;20.70;97.00
31783;DHT22;18351;47.560;9.708;2023-08-31T11:33:14;20.80;95.20
31783;DHT22;18351;47.560;9.708;2023-08-31T11:35:43;20.70;94.60
31783;DHT22;18351;47.560;9.708;2023-08-31T11:38:10;20.50;95.10
31783;DHT22;18351;47.560;9.708;2023-08-31T11:40:36;20.40;95.60
31783;DHT22;18351;47.560;9.708;2023-08-31T11:43:04;20.30;94.80
31783;DHT22;18351;47.560;9.708;2023-08-31T11:45:31;20.20;95.60
31783;DHT22;18351;47.560;9.708;2023-08-31T11:47:58;20.30;97.40
31783;DHT22;18351;47.560;9.708;2023-08-31T11:50:24;20.40;96.20
31783;DHT22;18351;47.560;9.708;2023-08-31T11:52:51;20.50;95.40
31783;DHT22;18351;47.560;9.708;2023-08-31T11:55:18;20.50;93.40
31783;DHT22;18351;47.560;9.708;2023-08-31T11:57:50;20.30;94.30
31783;DHT22;18351;47.560;9.708;2023-08-31T12:00:21;20.30;93.20
31783;DHT22;18351;47.560;9.708;2023-08-31T12:02:57;20.50;93.50
31783;DHT22;18351;47.560;9.708;2023-08-31T12:05:23;20.60;93.10
31783;DHT22;18351;47.560;9.708;2023-08-31T12:07:49;20.60;92.70
31783;DHT22;18351;47.560;9.708;2023-08-31T12:10:16;20.60;93.30
31783;DHT22;18351;47.560;9.708;2023-08-31T12:12:41;20.60;92.90
31783;DHT22;18351;47.560;9.708;2023-08-31T12:15:07;20.80;93.70
31783;DHT22;18351;47.560;9.708;2023-08-31T12:17:37;20.80;92.20
31783;DHT22;18351;47.560;9.708;2023-08-31T12:20:04;20.90;92.90
31783;DHT22;18351;47.560;9.708;2023-08-31T12:22:30;21.10;93.10
31783;DHT22;18351;47.560;9.708;2023-08-31T12:24:56;21.10;92.50
31783;DHT22;18351;47.560;9.708;2023-08-31T12:27:21;21.00;88.50
31783;DHT22;18351;47.560;9.708;2023-08-31T12:29:47;20.90;91.20
31783;DHT22;18351;47.560;9.708;2023-08-31T12:32:12;20.90;92.20
31783;DHT22;18351;47.560;9.708;2023-08-31T12:34:38;20.80;90.70
31783;DHT22;18351;47.560;9.708;2023-08-31T12:37:03;20.70;90.90
31783;DHT22;18351;47.560;9.708;2023-08-31T12:39:30;20.70;90.50
31783;DHT22;18351;47.560;9.708;2023-08-31T12:41:56;20.80;90.80
31783;DHT22;18351;47.560;9.708;2023-08-31T12:44:21;20.60;90.10
31783;DHT22;18351;47.560;9.708;2023-08-31T12:46:47;20.60;90.80
31783;DHT22;18351;47.560;9.708;2023-08-31T12:49:13;20.60;90.70
31783;DHT22;18351;47.560;9.708;2023-08-31T12:51:38;20.50;89.10
31783;DHT22;18351;47.560;9.708;2023-08-31T12:54:04;20.30;90.00
31783;DHT22;18351;47.560;9.708;2023-08-31T12:56:30;20.20;90.60
31783;DHT22;18351;47.560;9.708;2023-08-31T12:58:56;20.20;91.30
31783;DHT22;18351;47.560;9.708;2023-08-31T13:01:22;20.30;92.80
31783;DHT22;18351;47.560;9.708;2023-08-31T13:03:49;20.40;90.90
31783;DHT22;18351;47.560;9.708;2023-08-31T13:06:14;20.50;87.10
31783;DHT22;18351;47.560;9.708;2023-08-31T13:08:42;20.60;89.10
31783;DHT22;18351;47.560;9.708;2023-08-31T13:11:09;20.70;87.20
31783;DHT22;18351;47.560;9.708;2023-08-31T13:13:35;20.80;88.60
31783;DHT22;18351;47.560;9.708;2023-08-31T13:16:00;20.90;89.80
31783;DHT22;18351;47.560;9.708;2023-08-31T13:18:26;20.90;88.70
31783;DHT22;18351;47.560;9.708;2023-08-31T13:20:53;20.70;87.10
31783;DHT22;18351;47.560;9.708;2023-08-31T13:23:19;20.60;90.10
31783;DHT22;18351;47.560;9.708;2023-08-31T13:25:45;20.70;90.00
31783;DHT22;18351;47.560;9.708;2023-08-31T13:28:12;20.70;87.70
31783;DHT22;18351;47.560;9.708;2023-08-31T13:30:37;20.70;87.80
31783;DHT22;18351;47.560;9.708;2023-08-31T13:33:03;20.60;88.40
31783;DHT22;18351;47.560;9.708;2023-08-31T13:35:32;20.60;88.30
31783;DHT22;18351;47.560;9.708;2023-08-31T13:37:57;20.60;88.90
31783;DHT22;18351;47.560;9.708;2023-08-31T13:40:23;20.50;90.50
31783;DHT22;18351;47.560;9.708;2023-08-31T13:43:02;20.40;90.70
31783;DHT22;18351;47.560;9.708;2023-08-31T13:45:31;20.60;91.20
31783;DHT22;18351;47.560;9.708;2023-08-31T13:48:00;20.70;90.20
31783;DHT22;18351;47.560;9.708;2023-08-31T13:50:28;20.80;91.10
31783;DHT22;18351;47.560;9.708;2023-08-31T13:52:54;21.00;91.20
31783;DHT22;18351;47.560;9.708;2023-08-31T13:55:20;21.00;89.80
31783;DHT22;18351;47.560;9.708;2023-08-31T13:57:46;21.00;91.00
31783;DHT22;18351;47.560;9.708;2023-08-31T14:00:12;21.00;90.00
31783;DHT22;18351;47.560;9.708;2023-08-31T14:02:38;21.00;89.60
31783;DHT22;18351;47.560;9.708;2023-08-31T14:05:04;20.90;88.60
31783;DHT22;18351;47.560;9.708;2023-08-31T14:07:41;20.70;90.30
31783;DHT22;18351;47.560;9.708;2023-08-31T14:10:07;20.60;89.10
31783;DHT22;18351;47.560;9.708;2023-08-31T14:12:34;20.40;90.60
31783;DHT22;18351;47.560;9.708;2023-08-31T14:14:59;20.50;91.40
31783;DHT22;18351;47.560;9.708;2023-08-31T14:17:29;20.60;92.60
31783;DHT22;18351;47.560;9.708;2023-08-31T14:19:54;20.80;90.20
31783;DHT22;18351;47.560;9.708;2023-08-31T14:22:20;20.80;90.30
31783;DHT22;18351;47.560;9.708;2023-08-31T14:24:45;20.90;90.60
31783;DHT22;18351;47.560;9.708;2023-08-31T14:27:11;20.90;90.50
31783;DHT22;18351;47.560;9.708;2023-08-31T14:29:37;21.00;90.30
31783;DHT22;18351;47.560;9.708;2023-08-31T14:32:03;21.00;89.90
31783;DHT22;18351;47.560;9.708;2023-08-31T14:34:28;21.10;90.80
31783;DHT22;18351;47.560;9.708;2023-08-31T14:36:54;21.10;90.50
31783;DHT22;18351;47.560;9.708;2023-08-31T14:39:22;21.00;90.60
31783;DHT22;18351;47.560;9.708;2023-08-31T14:41:50;21.00;89.70
31783;DHT22;18351;47.560;9.708;2023-08-31T14:44:15;20.90;89.40
31783;DHT22;18351;47.560;9.708;2023-08-31T14:46:41;20.90;89.80
31783;DHT22;18351;47.560;9.708;2023-08-31T14:49:06;20.90;90.60
31783;DHT22;18351;47.560;9.708;2023-08-31T14:51:32;20.90;90.00
31783;DHT22;18351;47.560;9.708;2023-08-31T14:53:58;20.70;90.10
31783;DHT22;18351;47.560;9.708;2023-08-31T14:56:24;20.60;90.50
31783;DHT22;18351;47.560;9.708;2023-08-31T14:58:49;20.50;92.10
31783;DHT22;18351;47.560;9.708;2023-08-31T15:01:15;20.60;90.90
31783;DHT22;18351;47.560;9.708;2023-08-31T15:03:40;20.40;90.20
31783;DHT22;18351;47.560;9.708;2023-08-31T15:06:06;20.50;91.10
31783;DHT22;18351;47.560;9.708;2023-08-31T15:08:39;20.50;90.80
31783;DHT22;18351;47.560;9.708;2023-08-31T15:11:05;20.40;90.40
31783;DHT22;18351;47.560;9.708;2023-08-31T15:13:31;20.30;90.80
31783;DHT22;18351;47.560;9.708;2023-08-31T15:15:56;20.20;90.70
31783;DHT22;18351;47.560;9.708;2023-08-31T15:18:25;20.10;91.20
31783;DHT22;18351;47.560;9.708;2023-08-31T15:20:50;20.20;91.50
31783;DHT22;18351;47.560;9.708;2023-08-31T15:23:16;20.30;91.50
31783;DHT22;18351;47.560;9.708;2023-08-31T15:25:42;20.30;91.00
31783;DHT22;18351;47.560;9.708;2023-08-31T15:28:07;20.40;92.50
31783;DHT22;18351;47.560;9.708;2023-08-31T15:30:34;20.50;91.60
31783;DHT22;18351;47.560;9.708;2023-08-31T15:33:03;20.50;91.10
31783;DHT22;18351;47.560;9.708;2023-08-31T15:35:29;20.40;91.10
31783;DHT22;18351;47.560;9.708;2023-08-31T15:37:55;20.40;92.00
31783;DHT22;18351;47.560;9.708;2023-08-31T15:40:21;20.40;92.00
31783;DHT22;18351;47.560;9.708;2023-08-31T15:42:47;20.40;92.50
31783;DHT22;18351;47.560;9.708;2023-08-31T15:45:13;20.40;91.40
31783;DHT22;18351;47.560;9.708;2023-08-31T15:47:38;20.40;92.20